Time;durP1;ratioP1;P1;durP2;ratioP2;P2;SDS_P1;SDS_P2;PMS_P1;PMS_P2;Temp;Humidity;BMP_temperature;BMP_pressure;BME280_temperature;BME280_humidity;BME280_pressure;Samples;Min_cycle;Max_cycle;Signal;HPM_P1;HPM_P2
2023/04/16 00:01:51;;;;;;;24.40;21.42;;;9.60;99.90;;;;;;5077638;28;20670;-65
2023/04/16 00:04:17;;;;;;;25.52;22.65;;;9.60;99.90;;;;;;5076517;28;20312;-65
2023/04/16 00:06:44;;;;;;;28.45;21.83;;;9.60;99.90;;;;;;5076360;28;20288;-66
2023/04/16 00:09:11;;;;;;;24.70;21.98;;;9.60;99.90;;;;;;5076021;28;20208;-65
2023/04/16 00:11:38;;;;;;;27.35;22.77;;;9.50;99.90;;;;;;5076570;28;20213;-66
2023/04/16 00:14:05;;;;;;;29.15;22.05;;;9.50;99.90;;;;;;5076762;28;20312;-63
2023/04/16 00:16:32;;;;;;;27.33;21.55;;;9.50;99.90;;;;;;5077273;28;20586;-65
2023/04/16 00:19:01;;;;;;;34.85;22.58;;;9.50;99.90;;;;;;5075441;28;20205;-65
2023/04/16 00:21:27;;;;;;;27.75;21.40;;;9.50;99.90;;;;;;5075430;28;20288;-65
2023/04/16 00:23:54;;;;;;;28.85;23.08;;;9.50;99.90;;;;;;5074992;28;20689;-64
2023/04/16 00:26:21;;;;;;;28.15;22.27;;;9.50;99.90;;;;;;5075508;28;20657;-65
2023/04/16 00:28:48;;;;;;;29.98;22.50;;;9.50;99.90;;;;;;5078889;28;20207;-64
2023/04/16 00:31:15;;;;;;;25.73;21.98;;;9.40;99.90;;;;;;5078879;28;20697;-65
2023/04/16 00:33:42;;;;;;;31.30;24.25;;;9.40;99.90;;;;;;5080816;28;20200;-65
2023/04/16 00:36:10;;;;;;;30.25;22.75;;;9.40;99.90;;;;;;5081440;28;20685;-65
2023/04/16 00:38:37;;;;;;;32.50;24.23;;;9.30;99.90;;;;;;5081998;28;20212;-64
2023/04/16 00:41:04;;;;;;;28.20;23.08;;;9.30;99.90;;;;;;5085170;28;20742;-64
2023/04/16 00:43:31;;;;;;;28.30;23.63;;;9.30;99.90;;;;;;5083719;28;20205;-65
2023/04/16 00:45:58;;;;;;;35.85;23.88;;;9.30;99.90;;;;;;5080638;28;20196;-65
2023/04/16 00:48:26;;;;;;;29.33;23.08;;;9.20;99.90;;;;;;5079922;28;20212;-66
2023/04/16 00:50:55;;;;;;;30.05;23.45;;;9.20;99.90;;;;;;5081157;28;20196;-65
2023/04/16 00:53:24;;;;;;;31.02;23.73;;;9.20;99.90;;;;;;5081560;28;20248;-64
2023/04/16 00:55:51;;;;;;;30.13;24.90;;;9.20;99.90;;;;;;5086299;28;20221;-66
2023/04/16 00:58:18;;;;;;;32.28;25.10;;;9.20;99.90;;;;;;5090023;28;20288;-66
2023/04/16 01:00:45;;;;;;;32.72;22.60;;;9.10;99.90;;;;;;5088625;28;20204;-65
2023/04/16 01:03:11;;;;;;;33.20;24.52;;;9.10;99.90;;;;;;5089065;28;20205;-66
2023/04/16 01:05:39;;;;;;;32.17;24.35;;;9.10;99.90;;;;;;5088847;28;20284;-65
2023/04/16 01:08:06;;;;;;;33.22;25.90;;;9.10;99.90;;;;;;5088910;28;20208;-65
2023/04/16 01:10:34;;;;;;;38.22;25.40;;;9.10;99.90;;;;;;5086227;28;20201;-65
2023/04/16 01:13:01;;;;;;;31.80;23.88;;;9.10;99.90;;;;;;5078933;28;20292;-66
2023/04/16 01:15:28;;;;;;;30.80;24.23;;;9.10;99.90;;;;;;5083473;28;20225;-64
2023/04/16 01:17:54;;;;;;;30.77;22.90;;;9.10;99.90;;;;;;5081819;28;20773;-65
2023/04/16 01:20:21;;;;;;;29.65;23.73;;;9.00;99.90;;;;;;5080470;28;20296;-65
2023/04/16 01:22:49;;;;;;;31.40;22.92;;;9.00;99.90;;;;;;5079356;28;20205;-65
2023/04/16 01:25:16;;;;;;;29.40;24.20;;;9.00;99.90;;;;;;5078403;28;20557;-64
2023/04/16 01:27:43;;;;;;;34.30;24.90;;;9.00;99.90;;;;;;5079052;28;20300;-65
2023/04/16 01:30:10;;;;;;;38.33;26.80;;;8.90;99.90;;;;;;5078274;28;20227;-65
2023/04/16 01:32:37;;;;;;;30.67;23.25;;;8.90;99.90;;;;;;5077005;28;20575;-65
2023/04/16 01:35:05;;;;;;;32.10;24.30;;;8.90;99.90;;;;;;5077209;28;20217;-66
2023/04/16 01:37:31;;;;;;;34.78;24.20;;;8.80;99.90;;;;;;5076671;28;20229;-65
2023/04/16 01:39:59;;;;;;;36.15;24.52;;;8.80;99.90;;;;;;5076202;28;20229;-65
2023/04/16 01:42:27;;;;;;;32.65;24.42;;;8.80;99.90;;;;;;5077767;28;20215;-66
2023/04/16 01:44:53;;;;;;;33.38;24.25;;;8.80;99.90;;;;;;5077996;28;20220;-65
2023/04/16 01:47:20;;;;;;;33.03;24.85;;;8.80;99.90;;;;;;5086647;28;20201;-65
2023/04/16 01:49:47;;;;;;;33.83;24.38;;;8.70;99.90;;;;;;5086088;28;20211;-65
2023/04/16 01:52:14;;;;;;;29.60;23.88;;;8.70;99.90;;;;;;5091109;28;20197;-66
2023/04/16 01:54:41;;;;;;;36.40;24.90;;;8.70;99.90;;;;;;5090941;28;20674;-66
2023/04/16 01:57:10;;;;;;;28.73;23.20;;;8.60;99.90;;;;;;5091778;28;20224;-66
2023/04/16 01:59:36;;;;;;;33.65;26.38;;;8.60;99.90;;;;;;5090588;28;20209;-66
2023/04/16 02:02:09;;;;;;;34.38;25.00;;;8.60;99.90;;;;;;5089499;28;20201;-65
2023/04/16 02:04:37;;;;;;;32.72;23.70;;;8.60;99.90;;;;;;5087107;28;20262;-66
2023/04/16 02:07:03;;;;;;;32.03;23.73;;;8.60;99.90;;;;;;5086100;28;20193;-65
2023/04/16 02:09:30;;;;;;;35.03;24.73;;;8.60;99.90;;;;;;5080738;28;20225;-65
2023/04/16 02:11:57;;;;;;;33.42;25.67;;;8.50;99.90;;;;;;5079021;28;20201;-66
2023/04/16 02:14:25;;;;;;;31.55;24.50;;;8.50;99.90;;;;;;5080388;28;20217;-65
2023/04/16 02:16:52;;;;;;;31.73;22.25;;;8.40;99.90;;;;;;5079793;28;20216;-65
2023/04/16 02:19:19;;;;;;;31.10;23.75;;;8.40;99.90;;;;;;5080879;28;20205;-65
2023/04/16 02:21:45;;;;;;;35.55;23.90;;;8.40;99.90;;;;;;5079537;28;20685;-64
2023/04/16 02:24:12;;;;;;;34.10;24.88;;;8.30;99.90;;;;;;5080610;28;20255;-66
2023/04/16 02:26:39;;;;;;;29.90;23.90;;;8.30;99.90;;;;;;5078217;28;20207;-65
2023/04/16 02:29:06;;;;;;;33.38;23.50;;;8.30;99.90;;;;;;5077901;28;20607;-65
2023/04/16 02:31:34;;;;;;;32.85;24.20;;;8.30;99.90;;;;;;5077800;28;20265;-65
2023/04/16 02:34:02;;;;;;;38.30;26.80;;;8.30;99.90;;;;;;5077178;28;20657;-65
2023/04/16 02:36:28;;;;;;;35.17;26.08;;;8.30;99.90;;;;;;5076322;28;20631;-65
2023/04/16 02:38:55;;;;;;;36.00;25.60;;;8.30;99.90;;;;;;5076815;28;20223;-65
2023/04/16 02:41:22;;;;;;;34.60;25.42;;;8.30;99.90;;;;;;5079979;28;20574;-66
2023/04/16 02:43:49;;;;;;;39.53;23.92;;;8.30;99.90;;;;;;5079114;28;20203;-65
2023/04/16 02:46:16;;;;;;;34.95;23.70;;;8.30;99.90;;;;;;5078339;28;20291;-65
2023/04/16 02:48:44;;;;;;;32.85;23.70;;;8.20;99.90;;;;;;5078636;28;20220;-64
2023/04/16 02:51:11;;;;;;;42.40;26.30;;;8.20;99.90;;;;;;5078356;28;20212;-65
2023/04/16 02:53:37;;;;;;;35.00;25.80;;;8.10;99.90;;;;;;5078490;28;20571;-65
2023/04/16 02:56:05;;;;;;;36.55;25.42;;;8.10;99.90;;;;;;5078508;28;20205;-65
2023/04/16 02:58:32;;;;;;;37.10;26.13;;;8.10;99.90;;;;;;5078106;28;20220;-65
2023/04/16 03:00:59;;;;;;;37.20;26.40;;;8.10;99.90;;;;;;5079083;28;20205;-64
2023/04/16 03:03:25;;;;;;;39.30;24.60;;;8.00;99.90;;;;;;5079971;28;20201;-64
2023/04/16 03:05:54;;;;;;;34.53;24.98;;;8.00;99.90;;;;;;5077741;28;20227;-65
2023/04/16 03:08:21;;;;;;;35.38;25.63;;;8.00;99.90;;;;;;5077310;28;20197;-64
2023/04/16 03:10:47;;;;;;;36.08;25.98;;;8.00;99.90;;;;;;5076898;28;20204;-65
2023/04/16 03:13:14;;;;;;;35.85;26.05;;;7.90;99.90;;;;;;5078138;28;20205;-64
2023/04/16 03:15:41;;;;;;;38.42;24.52;;;8.00;99.90;;;;;;5079559;28;20307;-65
2023/04/16 03:18:08;;;;;;;34.33;24.20;;;7.90;99.90;;;;;;5079523;28;20232;-65
2023/04/16 03:20:34;;;;;;;37.55;26.15;;;7.90;99.90;;;;;;5086901;28;20207;-65
2023/04/16 03:23:02;;;;;;;37.75;25.65;;;7.90;99.90;;;;;;5088294;28;20207;-64
2023/04/16 03:25:29;;;;;;;36.58;22.13;;;7.90;99.90;;;;;;5090622;28;20237;-65
2023/04/16 03:27:56;;;;;;;35.85;24.63;;;7.90;99.90;;;;;;5090215;28;20208;-66
2023/04/16 03:30:23;;;;;;;39.42;26.15;;;7.90;99.90;;;;;;5089430;28;20273;-65
2023/04/16 03:32:50;;;;;;;43.45;26.10;;;7.90;99.90;;;;;;5087977;28;20205;-66
2023/04/16 03:35:17;;;;;;;37.97;24.00;;;7.90;99.90;;;;;;5088590;28;20225;-66
2023/04/16 03:37:44;;;;;;;37.92;25.40;;;7.90;99.90;;;;;;5086494;28;20289;-63
2023/04/16 03:40:14;;;;;;;33.25;24.92;;;7.90;99.90;;;;;;5084581;28;20204;-65
2023/04/16 03:42:40;;;;;;;35.15;24.92;;;7.80;99.90;;;;;;5096136;28;20193;-66
2023/04/16 03:45:08;;;;;;;36.25;23.77;;;7.80;99.90;;;;;;5094072;28;20301;-66
2023/04/16 03:47:35;;;;;;;34.85;24.65;;;7.80;99.90;;;;;;5092522;28;20260;-65
2023/04/16 03:50:02;;;;;;;39.13;26.52;;;7.80;99.90;;;;;;5092013;28;20280;-65
2023/04/16 03:52:29;;;;;;;40.42;26.10;;;7.80;99.90;;;;;;5090908;28;20272;-66
2023/04/16 03:54:55;;;;;;;37.45;25.20;;;7.80;99.90;;;;;;5090598;28;20247;-65
2023/04/16 03:57:23;;;;;;;38.65;25.05;;;7.80;99.90;;;;;;5089942;28;20276;-66
2023/04/16 03:59:50;;;;;;;35.50;24.95;;;7.80;99.90;;;;;;5086623;28;20227;-66
2023/04/16 04:02:17;;;;;;;37.28;25.80;;;7.80;99.90;;;;;;5084593;28;20272;-66
2023/04/16 04:04:44;;;;;;;41.20;24.35;;;7.80;99.90;;;;;;5086336;28;20392;-65
2023/04/16 04:07:11;;;;;;;42.30;23.92;;;7.70;99.90;;;;;;5085792;28;20204;-66
2023/04/16 04:11:33;;;;;;;35.58;24.08;;;7.70;99.90;;;;;;5097770;28;20530;-66
2023/04/16 04:14:00;;;;;;;38.75;24.05;;;7.70;99.90;;;;;;5104787;28;20288;-65
2023/04/16 04:16:27;;;;;;;38.58;24.90;;;7.80;99.90;;;;;;5103070;28;20204;-64
2023/04/16 04:18:54;;;;;;;35.22;22.95;;;7.80;99.90;;;;;;5105483;28;20232;-65
2023/04/16 04:21:21;;;;;;;30.90;23.10;;;7.80;99.90;;;;;;5100753;28;20575;-65
2023/04/16 04:26:25;;;;;;;40.15;25.02;;;7.80;99.90;;;;;;5029188;28;20222;-70
2023/04/16 04:28:53;;;;;;;35.42;23.20;;;7.80;99.90;;;;;;5030495;28;20198;-70
2023/04/16 04:31:20;;;;;;;36.33;24.52;;;7.70;99.90;;;;;;5029891;28;20309;-70
2023/04/16 04:33:47;;;;;;;32.53;22.90;;;7.80;99.90;;;;;;5029931;28;20690;-70
2023/04/16 04:36:14;;;;;;;30.00;21.90;;;7.80;99.90;;;;;;5010579;28;20214;-70
2023/04/16 04:38:41;;;;;;;35.00;23.88;;;7.80;99.90;;;;;;5010027;28;20293;-69
2023/04/16 04:41:07;;;;;;;35.08;23.08;;;7.80;99.90;;;;;;5010272;28;20195;-70
2023/04/16 04:43:34;;;;;;;34.08;22.90;;;7.80;99.90;;;;;;5010068;28;20203;-70
2023/04/16 04:46:02;;;;;;;33.45;23.35;;;7.80;99.90;;;;;;5010773;28;20227;-70
2023/04/16 04:48:29;;;;;;;33.20;22.70;;;7.80;99.90;;;;;;5010429;28;20211;-69
2023/04/16 04:50:56;;;;;;;33.28;23.40;;;7.80;99.90;;;;;;5010069;28;20226;-69
2023/04/16 04:53:22;;;;;;;32.15;23.63;;;7.80;99.90;;;;;;5010135;28;20666;-69
2023/04/16 04:55:49;;;;;;;29.08;21.00;;;7.90;99.90;;;;;;5009871;28;20591;-68
2023/04/16 04:58:16;;;;;;;35.78;23.10;;;7.90;99.90;;;;;;5010626;28;20253;-69
2023/04/16 05:00:43;;;;;;;39.70;23.85;;;7.80;99.90;;;;;;5009952;28;20202;-71
2023/04/16 05:03:12;;;;;;;35.08;22.40;;;7.90;99.90;;;;;;5010750;28;20748;-70
2023/04/16 05:05:38;;;;;;;34.92;23.98;;;7.80;99.90;;;;;;5011064;28;20289;-70
2023/04/16 05:08:05;;;;;;;37.45;24.60;;;7.80;99.90;;;;;;5010630;28;20669;-69
2023/04/16 05:10:32;;;;;;;31.80;22.15;;;7.80;99.90;;;;;;5011127;28;20230;-69
2023/04/16 05:12:59;;;;;;;34.15;23.23;;;7.80;99.90;;;;;;5011123;28;20203;-69
2023/04/16 05:15:26;;;;;;;32.47;22.48;;;7.90;99.90;;;;;;5010434;28;20244;-69
2023/04/16 05:17:54;;;;;;;31.70;23.67;;;7.80;99.90;;;;;;5010991;28;20303;-70
2023/04/16 05:20:23;;;;;;;32.45;22.70;;;7.80;99.90;;;;;;5010812;28;20210;-69
2023/04/16 05:22:50;;;;;;;29.77;21.65;;;7.90;99.90;;;;;;4998262;28;20238;-71
2023/04/16 05:25:17;;;;;;;34.67;21.65;;;7.90;99.90;;;;;;4997515;28;20285;-70
2023/04/16 05:27:44;;;;;;;31.58;21.85;;;7.90;99.90;;;;;;4997577;28;20204;-70
2023/04/16 05:30:11;;;;;;;29.90;22.13;;;7.90;99.90;;;;;;4997928;28;20219;-69
2023/04/16 05:32:40;;;;;;;30.40;20.33;;;7.90;99.90;;;;;;4997883;28;20206;-70
2023/04/16 05:35:08;;;;;;;30.45;21.48;;;7.90;99.90;;;;;;4997255;28;20276;-70
2023/04/16 05:37:36;;;;;;;32.92;22.83;;;7.90;99.90;;;;;;4997670;28;20214;-69
2023/04/16 05:40:03;;;;;;;28.65;20.08;;;8.00;99.90;;;;;;4997632;28;20208;-69
2023/04/16 05:42:30;;;;;;;29.50;21.27;;;8.00;99.90;;;;;;4998300;28;20262;-70
2023/04/16 05:44:57;;;;;;;30.15;20.83;;;8.00;99.90;;;;;;4999473;28;20228;-70
2023/04/16 05:47:24;;;;;;;28.88;20.42;;;8.00;99.90;;;;;;4998665;28;20229;-69
2023/04/16 05:49:51;;;;;;;28.27;20.65;;;8.00;99.90;;;;;;5001677;28;20214;-70
2023/04/16 05:52:18;;;;;;;27.48;20.88;;;8.10;99.90;;;;;;5002778;28;20212;-69
2023/04/16 05:54:46;;;;;;;27.83;19.55;;;8.10;99.90;;;;;;5000319;28;20230;-70
2023/04/16 05:57:13;;;;;;;26.48;18.65;;;8.10;99.90;;;;;;5000007;28;20210;-70
2023/04/16 05:59:40;;;;;;;28.15;18.85;;;8.10;99.90;;;;;;5003980;28;20218;-71
2023/04/16 06:02:07;;;;;;;26.17;18.95;;;8.20;99.90;;;;;;5004978;28;20284;-71
2023/04/16 06:04:34;;;;;;;30.17;20.90;;;8.20;99.90;;;;;;5004588;28;20223;-71
2023/04/16 06:07:01;;;;;;;25.58;18.55;;;8.20;99.90;;;;;;5002933;28;20294;-70
2023/04/16 06:09:28;;;;;;;24.73;18.17;;;8.30;99.90;;;;;;5000483;28;20382;-70
2023/04/16 06:11:56;;;;;;;22.17;15.85;;;8.30;99.90;;;;;;4996605;28;20234;-69
2023/04/16 06:14:23;;;;;;;27.90;20.02;;;8.30;99.90;;;;;;4997489;28;20604;-68
2023/04/16 06:16:50;;;;;;;27.00;20.13;;;8.30;99.90;;;;;;4996873;28;20555;-70
2023/04/16 06:19:17;;;;;;;26.98;20.55;;;8.30;99.90;;;;;;4997023;28;20209;-70
2023/04/16 06:21:43;;;;;;;30.52;19.35;;;8.40;99.90;;;;;;5011059;28;20263;-68
2023/04/16 06:24:10;;;;;;;25.85;18.20;;;8.40;99.90;;;;;;5007814;28;20227;-71
2023/04/16 06:26:37;;;;;;;26.10;19.00;;;8.40;99.90;;;;;;4997528;28;20191;-70
2023/04/16 06:29:05;;;;;;;29.90;19.35;;;8.40;99.90;;;;;;4996122;28;20200;-70
2023/04/16 06:31:32;;;;;;;27.08;19.45;;;8.40;99.90;;;;;;4995632;28;20231;-70
2023/04/16 06:33:59;;;;;;;25.85;18.40;;;8.50;99.90;;;;;;4995530;28;20210;-70
2023/04/16 06:36:26;;;;;;;25.38;18.52;;;8.50;99.90;;;;;;4995626;28;20214;-71
2023/04/16 06:38:53;;;;;;;20.00;15.88;;;8.50;99.90;;;;;;4995710;28;20203;-71
2023/04/16 06:41:20;;;;;;;21.73;17.40;;;8.60;99.90;;;;;;4995928;28;20211;-70
2023/04/16 06:43:46;;;;;;;30.85;18.52;;;8.60;99.90;;;;;;4996100;28;20227;-70
2023/04/16 06:46:14;;;;;;;23.48;16.60;;;8.60;99.90;;;;;;4995902;28;20224;-69
2023/04/16 06:48:41;;;;;;;26.08;17.33;;;8.70;99.90;;;;;;4996639;28;20208;-71
2023/04/16 06:51:08;;;;;;;25.88;18.40;;;8.70;99.90;;;;;;4995908;28;20590;-70
2023/04/16 06:53:36;;;;;;;22.90;17.67;;;8.70;99.90;;;;;;4996107;28;20203;-69
2023/04/16 06:56:03;;;;;;;18.35;15.18;;;8.80;99.90;;;;;;4995604;28;20220;-69
2023/04/16 06:58:30;;;;;;;24.02;17.35;;;8.80;99.90;;;;;;4995876;28;20211;-70
2023/04/16 07:00:56;;;;;;;26.58;17.02;;;8.80;99.90;;;;;;4995228;28;20207;-70
2023/04/16 07:03:25;;;;;;;24.88;18.00;;;8.90;99.90;;;;;;4994810;28;20696;-69
2023/04/16 07:05:51;;;;;;;24.13;15.95;;;8.90;99.90;;;;;;4995340;28;20227;-70
2023/04/16 07:08:18;;;;;;;23.58;17.67;;;8.90;99.90;;;;;;4995147;28;20204;-70
2023/04/16 07:10:45;;;;;;;23.67;16.90;;;8.90;99.90;;;;;;4995275;28;20223;-69
2023/04/16 07:13:12;;;;;;;21.05;16.83;;;8.90;99.90;;;;;;4995208;28;20207;-70
2023/04/16 07:15:39;;;;;;;21.95;16.55;;;8.90;99.90;;;;;;4995321;28;20306;-70
2023/04/16 07:18:06;;;;;;;23.30;16.65;;;8.90;99.90;;;;;;4994787;28;20724;-70
2023/04/16 07:20:35;;;;;;;22.75;17.77;;;8.80;99.90;;;;;;4995004;28;20200;-68
2023/04/16 07:23:01;;;;;;;27.63;18.00;;;8.90;99.90;;;;;;4994787;28;20298;-69
2023/04/16 07:25:28;;;;;;;22.13;18.13;;;8.80;99.90;;;;;;5006722;28;20303;-70
2023/04/16 07:27:55;;;;;;;24.17;18.45;;;8.90;99.90;;;;;;4995425;28;20200;-71
2023/04/16 07:30:22;;;;;;;26.75;18.42;;;8.90;99.90;;;;;;4997213;28;20215;-71
2023/04/16 07:32:48;;;;;;;23.20;17.35;;;8.90;99.90;;;;;;4996007;28;20214;-71
2023/04/16 07:35:15;;;;;;;19.67;16.15;;;9.00;99.90;;;;;;4995532;28;20230;-70
2023/04/16 07:37:43;;;;;;;21.77;15.55;;;9.00;99.90;;;;;;4994919;28;20203;-70
2023/04/16 07:40:11;;;;;;;21.88;16.92;;;9.00;99.90;;;;;;4994961;28;20590;-69
2023/04/16 07:42:38;;;;;;;17.30;14.93;;;9.00;99.90;;;;;;4994703;28;20675;-70
2023/04/16 07:45:05;;;;;;;22.15;16.80;;;9.10;99.90;;;;;;4994469;28;20223;-69
2023/04/16 07:47:32;;;;;;;20.48;16.23;;;9.10;99.90;;;;;;4994439;28;20203;-71
2023/04/16 07:49:59;;;;;;;21.25;16.05;;;9.20;99.90;;;;;;4993739;28;20645;-69
2023/04/16 07:52:26;;;;;;;21.52;15.10;;;9.20;99.90;;;;;;4994501;28;20597;-67
2023/04/16 07:54:54;;;;;;;20.67;15.90;;;9.20;99.90;;;;;;4993844;28;20274;-67
2023/04/16 07:57:21;;;;;;;21.92;15.00;;;9.20;99.90;;;;;;4993919;28;20681;-67
2023/04/16 07:59:48;;;;;;;25.10;17.27;;;9.30;99.90;;;;;;4994290;28;20214;-65
2023/04/16 08:02:16;;;;;;;19.30;14.48;;;9.40;99.90;;;;;;4993742;28;20195;-65
2023/04/16 08:04:43;;;;;;;18.95;15.77;;;9.40;99.90;;;;;;4993682;28;20597;-66
2023/04/16 08:07:10;;;;;;;25.02;16.50;;;9.40;99.90;;;;;;4993627;28;20204;-64
2023/04/16 08:09:46;;;;;;;21.20;17.35;;;9.40;99.90;;;;;;4994327;28;20205;-66
2023/04/16 08:12:15;;;;;;;20.50;14.48;;;9.50;99.90;;;;;;4993526;28;20214;-66
2023/04/16 08:14:42;;;;;;;23.35;15.80;;;9.50;99.90;;;;;;4993373;28;20646;-64
2023/04/16 08:17:08;;;;;;;21.75;16.70;;;9.50;99.90;;;;;;4993715;28;20214;-66
2023/04/16 08:19:35;;;;;;;21.88;15.60;;;9.60;99.90;;;;;;4993565;28;20206;-66
2023/04/16 08:22:02;;;;;;;18.55;15.65;;;9.70;99.90;;;;;;4994017;28;20196;-66
2023/04/16 08:24:29;;;;;;;24.85;16.17;;;9.80;99.90;;;;;;4993517;28;20332;-66
2023/04/16 08:26:56;;;;;;;29.75;16.67;;;9.90;99.90;;;;;;4994282;28;20196;-66
2023/04/16 08:29:25;;;;;;;27.27;15.95;;;9.90;99.90;;;;;;4993592;28;20199;-66
2023/04/16 08:31:52;;;;;;;19.13;16.08;;;10.00;99.90;;;;;;4993744;28;20231;-66
2023/04/16 08:34:19;;;;;;;19.90;15.00;;;10.00;99.90;;;;;;4993657;28;20219;-66
2023/04/16 08:36:46;;;;;;;23.30;15.95;;;10.00;99.90;;;;;;4993704;28;21051;-66
2023/04/16 08:39:13;;;;;;;20.57;16.30;;;10.00;99.90;;;;;;4993987;28;20238;-65
2023/04/16 08:41:43;;;;;;;20.80;16.30;;;10.10;99.90;;;;;;4994919;28;20457;-64
2023/04/16 08:44:14;;;;;;;18.40;14.80;;;10.30;99.90;;;;;;4993752;28;20494;-65
2023/04/16 08:46:44;;;;;;;22.53;15.47;;;10.40;99.90;;;;;;4996404;28;20498;-64
2023/04/16 08:49:17;;;;;;;16.63;13.67;;;10.40;99.90;;;;;;4993639;28;20446;-67
2023/04/16 08:51:49;;;;;;;19.53;14.67;;;10.40;99.90;;;;;;4994223;28;20812;-66
2023/04/16 08:54:24;;;;;;;20.73;14.43;;;10.30;99.90;;;;;;4993804;28;20946;-66
2023/04/16 08:56:51;;;;;;;19.77;16.27;;;10.30;99.90;;;;;;4995065;28;20961;-63
2023/04/16 08:59:18;;;;;;;22.40;15.87;;;10.30;99.90;;;;;;4996846;28;20434;-64
2023/04/16 09:01:47;;;;;;;17.90;15.57;;;10.30;99.90;;;;;;4996987;28;20439;-64
2023/04/16 09:04:16;;;;;;;17.27;13.50;;;10.30;99.90;;;;;;4997006;28;20470;-64
2023/04/16 09:06:43;;;;;;;21.73;16.50;;;10.30;99.90;;;;;;4998455;28;20967;-64
2023/04/16 09:09:12;;;;;;;22.97;17.07;;;10.30;99.90;;;;;;4996582;28;20447;-65
2023/04/16 09:11:39;;;;;;;21.53;17.23;;;10.30;99.90;;;;;;4996455;28;20909;-65
2023/04/16 09:14:11;;;;;;;22.63;16.60;;;10.40;99.90;;;;;;4996940;28;20960;-65
2023/04/16 09:16:38;;;;;;;21.73;15.97;;;10.40;99.90;;;;;;4996983;28;20505;-66
2023/04/16 09:19:06;;;;;;;20.93;16.03;;;10.40;99.90;;;;;;4996844;28;20451;-66
2023/04/16 09:21:33;;;;;;;21.27;15.80;;;10.50;99.90;;;;;;4997085;28;20455;-67
2023/04/16 09:24:01;;;;;;;16.33;14.30;;;10.50;99.90;;;;;;4997660;28;20457;-65
2023/04/16 09:26:28;;;;;;;20.47;15.50;;;10.60;99.90;;;;;;4996236;28;20441;-64
2023/04/16 09:28:55;;;;;;;20.47;16.07;;;10.70;99.90;;;;;;4996429;28;20949;-64
2023/04/16 09:31:22;;;;;;;22.83;15.97;;;10.70;99.90;;;;;;4996743;28;20492;-65
2023/04/16 09:34:02;;;;;;;20.43;16.30;;;10.70;99.90;;;;;;4997451;28;20457;-65
2023/04/16 09:36:31;;;;;;;21.57;16.00;;;10.70;99.90;;;;;;4998703;28;20423;-65
2023/04/16 09:38:58;;;;;;;26.10;17.23;;;10.60;99.90;;;;;;5001115;28;20501;-65
2023/04/16 09:41:27;;;;;;;19.60;17.03;;;10.50;99.90;;;;;;5001649;28;20443;-66
2023/04/16 09:43:58;;;;;;;20.10;16.10;;;10.40;99.90;;;;;;5002294;28;20478;-66
2023/04/16 09:46:29;;;;;;;19.77;15.88;;;10.20;99.90;;;;;;5001894;28;20803;-66
2023/04/16 09:48:56;;;;;;;19.33;16.40;;;10.10;99.90;;;;;;5002805;28;20564;-65
2023/04/16 09:51:25;;;;;;;21.95;17.70;;;10.00;99.90;;;;;;5001471;28;20482;-65
2023/04/16 09:53:56;;;;;;;24.45;19.15;;;10.00;99.90;;;;;;4999173;28;20227;-65
2023/04/16 09:56:24;;;;;;;23.02;18.55;;;9.90;99.90;;;;;;4999507;28;20555;-65
2023/04/16 09:58:56;;;;;;;24.27;19.10;;;9.90;99.90;;;;;;4999384;28;20235;-64
2023/04/16 10:01:23;;;;;;;22.88;17.95;;;9.80;99.90;;;;;;4998167;28;20555;-63
2023/04/16 10:03:50;;;;;;;24.13;18.52;;;9.80;99.90;;;;;;4998843;28;20203;-65
2023/04/16 10:06:19;;;;;;;25.13;19.13;;;9.80;99.90;;;;;;4998694;28;20635;-65
2023/04/16 10:08:48;;;;;;;21.15;18.35;;;9.90;99.90;;;;;;4997376;28;20203;-62
2023/04/16 10:11:16;;;;;;;23.33;18.60;;;9.90;99.90;;;;;;4997795;28;20218;-65
2023/04/16 10:13:43;;;;;;;25.00;19.45;;;9.90;99.90;;;;;;4997844;28;20549;-65
2023/04/16 10:16:11;;;;;;;26.73;19.02;;;9.90;99.90;;;;;;4997500;28;20230;-65
2023/04/16 10:18:39;;;;;;;23.58;19.73;;;9.90;99.90;;;;;;4997691;28;20254;-65
2023/04/16 10:21:06;;;;;;;27.08;18.83;;;9.80;99.90;;;;;;4997462;28;20235;-66
2023/04/16 10:23:34;;;;;;;24.77;19.35;;;9.80;99.90;;;;;;4998031;28;20274;-65
2023/04/16 10:26:02;;;;;;;27.70;20.15;;;9.80;99.90;;;;;;4997969;28;20642;-64
2023/04/16 10:28:31;;;;;;;28.23;21.27;;;9.70;99.90;;;;;;4997470;28;20213;-64
2023/04/16 10:30:58;;;;;;;26.75;21.05;;;9.70;99.90;;;;;;4999342;28;20242;-65
2023/04/16 10:33:27;;;;;;;26.65;20.38;;;9.60;99.90;;;;;;4997002;28;20227;-64
2023/04/16 10:36:08;;;;;;;27.33;22.77;;;9.50;99.90;;;;;;4997304;28;20258;-65
2023/04/16 10:38:35;;;;;;;23.90;21.00;;;9.40;99.90;;;;;;4997394;28;20188;-64
2023/04/16 10:41:03;;;;;;;32.47;22.02;;;9.30;99.90;;;;;;4996590;28;20208;-64
2023/04/16 10:43:33;;;;;;;26.95;22.63;;;9.30;99.90;;;;;;4996361;28;20204;-65
2023/04/16 10:46:18;;;;;;;26.77;21.95;;;9.20;99.90;;;;;;4995545;28;20220;-64
2023/04/16 10:48:45;;;;;;;29.05;22.48;;;9.20;99.90;;;;;;4998598;28;20219;-64
2023/04/16 10:51:31;;;;;;;31.58;24.85;;;9.20;99.90;;;;;;5001953;28;20550;-65
2023/04/16 10:54:02;;;;;;;28.48;21.52;;;9.20;99.90;;;;;;4996099;28;20188;-66
2023/04/16 10:56:33;;;;;;;31.55;23.02;;;9.30;99.90;;;;;;4995312;28;20184;-64
2023/04/16 10:59:04;;;;;;;34.40;24.08;;;9.30;99.90;;;;;;4995269;28;20204;-64
2023/04/16 11:01:32;;;;;;;28.95;24.30;;;9.40;99.90;;;;;;4995321;28;20192;-64
2023/04/16 11:04:03;;;;;;;33.15;25.27;;;9.50;99.90;;;;;;4995280;28;20203;-65
2023/04/16 11:06:31;;;;;;;31.08;24.27;;;9.60;99.90;;;;;;4995056;28;20188;-66
2023/04/16 11:08:57;;;;;;;31.70;23.80;;;9.60;99.90;;;;;;4995201;28;20582;-64
2023/04/16 11:11:25;;;;;;;28.90;21.92;;;9.70;99.90;;;;;;4994753;28;20292;-65
2023/04/16 11:13:56;;;;;;;26.85;22.17;;;9.70;99.90;;;;;;4994703;28;20294;-64
2023/04/16 11:16:26;;;;;;;29.35;21.42;;;9.70;99.90;;;;;;4994704;28;20544;-65
2023/04/16 11:18:53;;;;;;;28.27;21.65;;;9.60;99.90;;;;;;4994446;28;20200;-64
2023/04/16 11:21:20;;;;;;;31.60;22.85;;;9.60;99.90;;;;;;4994229;28;20688;-64
2023/04/16 11:23:49;;;;;;;28.02;22.00;;;9.50;99.90;;;;;;4994565;28;20207;-65
2023/04/16 11:26:24;;;;;;;29.27;22.70;;;9.40;99.90;;;;;;4994252;28;20219;-64
2023/04/16 11:28:51;;;;;;;35.42;25.08;;;9.30;99.90;;;;;;4995101;28;20272;-66
2023/04/16 11:31:18;;;;;;;33.75;25.13;;;9.30;99.90;;;;;;4994926;28;20568;-64
2023/04/16 11:33:46;;;;;;;33.47;26.25;;;9.30;99.90;;;;;;4995849;28;20253;-65
2023/04/16 11:36:13;;;;;;;31.40;24.38;;;9.30;99.90;;;;;;4995144;28;20239;-64
2023/04/16 11:38:41;;;;;;;31.98;25.02;;;9.30;99.90;;;;;;4994653;28;20215;-65
2023/04/16 11:41:09;;;;;;;31.65;24.17;;;9.30;99.90;;;;;;4995348;28;20200;-63
2023/04/16 11:43:36;;;;;;;34.05;25.45;;;9.30;99.90;;;;;;4995231;28;20586;-61
2023/04/16 11:46:04;;;;;;;39.83;27.60;;;9.40;99.90;;;;;;4995718;28;20601;-64
2023/04/16 11:48:49;;;;;;;32.45;25.08;;;9.50;99.90;;;;;;4996051;28;20210;-64
2023/04/16 11:51:16;;;;;;;35.97;25.40;;;9.60;99.90;;;;;;4995808;28;20200;-63
2023/04/16 11:53:47;;;;;;;31.05;25.98;;;9.70;99.90;;;;;;4995008;28;20227;-65
2023/04/16 11:56:14;;;;;;;35.80;26.35;;;9.70;99.90;;;;;;4995154;28;20234;-65
2023/04/16 11:58:41;;;;;;;32.92;25.45;;;9.80;99.90;;;;;;4994934;28;20674;-64
2023/04/16 12:01:09;;;;;;;36.63;26.10;;;9.80;99.90;;;;;;4994525;28;20207;-64
2023/04/16 12:03:45;;;;;;;34.50;26.17;;;10.00;99.90;;;;;;4994520;28;20234;-65
2023/04/16 12:06:14;;;;;;;34.63;24.20;;;10.00;99.90;;;;;;4994846;28;20246;-64
2023/04/16 12:08:41;;;;;;;34.57;26.13;;;10.20;99.90;;;;;;4994480;28;20804;-64
2023/04/16 12:11:07;;;;;;;32.53;23.60;;;10.20;99.90;;;;;;4993882;28;20541;-65
2023/04/16 12:13:38;;;;;;;31.43;21.57;;;10.40;99.90;;;;;;4993376;28;20485;-66
2023/04/16 12:16:18;;;;;;;28.47;22.17;;;10.50;99.90;;;;;;4993843;28;20467;-65
2023/04/16 12:19:00;;;;;;;29.80;22.93;;;10.50;99.90;;;;;;4993961;28;20470;-65
2023/04/16 12:21:36;;;;;;;29.92;21.15;;;10.50;99.90;;;;;;4993987;28;20894;-65
2023/04/16 12:24:03;;;;;;;28.23;21.10;;;10.60;99.90;;;;;;4993636;28;20664;-65
2023/04/16 12:26:37;;;;;;;32.00;21.70;;;10.60;99.90;;;;;;4993835;28;20454;-67
2023/04/16 12:29:18;;;;;;;27.93;21.40;;;10.50;99.90;;;;;;4993815;28;20439;-66
2023/04/16 12:31:45;;;;;;;26.07;19.20;;;10.50;99.90;;;;;;4994876;28;20559;-64
2023/04/16 12:34:13;;;;;;;31.13;22.33;;;10.40;99.90;;;;;;4997480;28;20470;-66
2023/04/16 12:36:42;;;;;;;28.60;21.00;;;10.40;99.90;;;;;;4997600;28;20577;-65
2023/04/16 12:39:09;;;;;;;32.27;22.20;;;10.40;99.90;;;;;;5003521;28;20454;-65
2023/04/16 12:41:38;;;;;;;26.63;21.60;;;10.30;99.90;;;;;;4997686;28;20447;-66
2023/04/16 12:44:10;;;;;;;32.57;22.90;;;10.30;99.90;;;;;;4997451;28;20442;-65